KACB/ACB METAR and TAF weather

Enter ICAO airport designator
Station Type Date Time Source
KACB METAR 2022/01/26 07:15 UTC NOAA

KACB 260715Z AUTO 00000KT 7SM SCT024 BKN035 OVC050 M13/M15 A3030 RMK AO2 T11261146


Station Type Date Time Source
KACB Decoded METAR 2022/01/26 07:15 UTC NOAA

Bellaire, Antrim County Airport, MI, United States (KACB) 44-59-18N 085-11-54W
Jan 26, 2022 - 02:15 AM EST / 2022.01.26 0715 UTC
Wind: Calm:0
Visibility: 7 mile(s):0
Sky conditions: overcast
Temperature: 9.3 F (-12.6 C)
Dew Point: 5.7 F (-14.6 C)
Relative Humidity: 84%
Pressure (altimeter): 30.3 in. Hg (1026 hPa)
ob: KACB 260715Z AUTO 00000KT 7SM SCT024 BKN035 OVC050 M13/M15 A3030 RMK AO2 T11261146
cycle: 7

Station Type Date Time Source
KACB TAF UTC NOAA

Error!

Example: see airport list